Snyder, Missouri
Current Conditions -  °F | °C
As of 12:35 PM on Monday 24 Nov 2014 (Local Time) from KMHL Reporting Station
Overcast Overcast  
Wind Chill: 28°   Ceiling: 2900
Heat Index: 37°   Visibility: 10mi
Dew Point: 30°   Wind: 17mph
Humidity: 75%   Direction: 280°W
Pressure: 29.75"   Gusts: 24mph
Location:  39.5082°N, 93.2104°W
Report Text: KMHL 241835Z AUTO 28015G21KT 10SM OVC029 03/M01 A2975 RMK AO2
Loading
Personal Weather Stations






























Interactive Weather Map New forecast layout! Learn more

10-Day Weather Forecast

Advertisements
Track Severe Weather on mobile